createdAt,value
2023-05-24T00:00:00.223Z,2.30
2023-05-24T00:04:01.961Z,2.60
2023-05-24T00:08:05.123Z,2.80
2023-05-24T00:12:06.920Z,2.43
2023-05-24T00:16:08.432Z,2.47
2023-05-24T00:20:11.261Z,3.30
2023-05-24T00:24:14.327Z,2.87
2023-05-24T00:28:15.846Z,2.80
2023-05-24T00:32:17.300Z,2.47
2023-05-24T00:36:18.902Z,2.47
2023-05-24T00:40:21.731Z,2.93
2023-05-24T00:44:23.302Z,3.00
2023-05-24T00:48:25.124Z,2.67
2023-05-24T00:52:26.736Z,2.30
2023-05-24T00:56:30.043Z,2.60
2023-05-24T01:00:32.475Z,2.50
2023-05-24T01:04:34.028Z,2.70
2023-05-24T01:08:45.622Z,2.40
2023-05-24T01:12:59.219Z,2.70
2023-05-24T01:17:06.360Z,2.83
2023-05-24T01:21:19.814Z,2.53
2023-05-24T01:25:33.957Z,2.27
2023-05-24T01:29:38.073Z,2.40
2023-05-24T01:33:42.748Z,2.87
2023-05-24T01:37:44.207Z,2.90
2023-05-24T01:41:54.562Z,2.80
2023-05-24T01:46:03.038Z,3.07
2023-05-24T01:50:11.404Z,3.33
2023-05-24T01:54:14.512Z,3.23
2023-05-24T01:58:17.773Z,2.93
2023-05-24T02:02:20.711Z,3.30
2023-05-24T02:06:22.234Z,2.80
2023-05-24T02:10:23.714Z,2.70
2023-05-24T02:14:25.210Z,2.73
2023-05-24T02:18:28.060Z,3.23
2023-05-24T02:22:29.544Z,2.83
2023-05-24T02:26:30.999Z,2.67
2023-05-24T02:30:32.436Z,3.00
2023-05-24T02:34:35.256Z,2.70
2023-05-24T02:38:36.723Z,2.27
2023-05-24T02:42:38.241Z,2.60
2023-05-24T02:46:39.906Z,2.43
2023-05-24T02:50:42.964Z,2.67
2023-05-24T02:54:44.653Z,2.67
2023-05-24T02:58:46.075Z,3.37
2023-05-24T03:02:47.574Z,2.70
2023-05-24T03:06:50.416Z,2.90
2023-05-24T03:10:51.845Z,2.63
2023-05-24T03:14:53.294Z,2.80
2023-05-24T03:18:54.999Z,2.70
2023-05-24T03:22:57.775Z,2.70
2023-05-24T03:26:59.210Z,2.33
2023-05-24T03:31:00.716Z,3.10
2023-05-24T03:35:02.165Z,3.50
2023-05-24T03:39:05.018Z,2.93
2023-05-24T03:43:06.577Z,2.63
2023-05-24T03:47:08.010Z,2.67
2023-05-24T03:51:09.456Z,3.03
2023-05-24T03:55:12.212Z,2.57
2023-05-24T03:59:13.678Z,2.43
2023-05-24T04:03:15.303Z,3.10
2023-05-24T04:07:16.822Z,2.93
2023-05-24T04:11:19.672Z,2.80
2023-05-24T04:15:21.166Z,2.90
2023-05-24T04:19:22.733Z,3.20
2023-05-24T04:23:24.164Z,3.13
2023-05-24T04:27:26.968Z,3.20
2023-05-24T04:31:28.486Z,3.23
2023-05-24T04:35:29.961Z,3.03
2023-05-24T04:39:31.416Z,3.17
2023-05-24T04:43:34.458Z,3.00
2023-05-24T04:47:35.928Z,3.60
2023-05-24T04:51:37.405Z,3.53
2023-05-24T04:55:38.841Z,3.30
2023-05-24T04:59:41.571Z,3.30
2023-05-24T05:03:43.360Z,3.97
2023-05-24T05:07:44.885Z,3.77
2023-05-24T05:11:46.824Z,3.60
2023-05-24T05:15:49.625Z,3.53
2023-05-24T05:19:51.163Z,4.50
2023-05-24T05:23:52.597Z,5.90
2023-05-24T05:27:54.087Z,4.27
2023-05-24T05:31:56.887Z,3.90
2023-05-24T05:35:58.430Z,4.20
2023-05-24T05:39:59.858Z,5.17
2023-05-24T05:44:01.291Z,4.85
2023-05-24T05:48:04.135Z,5.00
2023-05-24T05:52:05.995Z,4.53
2023-05-24T05:56:07.441Z,4.70
2023-05-24T06:00:09.945Z,4.50
2023-05-24T06:04:12.948Z,4.83
2023-05-24T06:08:14.423Z,4.53
2023-05-24T06:12:15.845Z,5.00
2023-05-24T06:16:17.364Z,4.80
2023-05-24T06:20:20.249Z,4.83
2023-05-24T06:24:21.789Z,4.77
2023-05-24T06:28:23.456Z,4.97
2023-05-24T06:32:24.946Z,4.80
2023-05-24T06:36:27.725Z,4.60
2023-05-24T06:40:29.255Z,4.63
2023-05-24T06:44:30.763Z,4.57
2023-05-24T06:48:32.236Z,5.00
2023-05-24T06:52:35.108Z,4.50
2023-05-24T06:56:36.488Z,4.80
2023-05-24T07:00:37.886Z,4.80
2023-05-24T07:04:39.577Z,4.67
2023-05-24T07:08:42.490Z,4.30
2023-05-24T07:12:43.927Z,4.57
2023-05-24T07:16:45.373Z,4.77
2023-05-24T07:20:47.264Z,4.80
2023-05-24T07:24:50.917Z,3.87
2023-05-24T07:28:52.375Z,4.30
2023-05-24T07:32:53.950Z,4.50
2023-05-24T07:36:55.612Z,5.07
2023-05-24T07:41:00.589Z,5.67
2023-05-24T07:45:02.573Z,5.07
2023-05-24T07:49:04.094Z,5.50
2023-05-24T07:53:05.767Z,5.30
2023-05-24T07:57:09.501Z,5.10
2023-05-24T08:01:11.101Z,5.87
2023-05-24T08:05:13.184Z,5.50
2023-05-24T08:09:14.630Z,5.60
2023-05-24T08:13:17.449Z,6.00
2023-05-24T08:17:19.308Z,6.10
2023-05-24T08:21:21.176Z,5.73
2023-05-24T08:25:22.852Z,5.80
2023-05-24T08:29:25.700Z,6.40
2023-05-24T08:33:27.185Z,5.57
2023-05-24T08:37:28.927Z,6.43
2023-05-24T08:41:30.503Z,5.77
2023-05-24T08:45:36.957Z,5.53
2023-05-24T08:49:39.581Z,5.23
2023-05-24T08:53:41.322Z,5.50
2023-05-24T08:57:45.213Z,5.47
2023-05-24T09:01:53.210Z,5.93
2023-05-24T09:05:55.184Z,5.63
2023-05-24T09:09:58.800Z,4.97
2023-05-24T09:14:01.217Z,5.37
2023-05-24T09:18:04.102Z,5.13
2023-05-24T09:22:06.416Z,5.03
2023-05-24T09:26:09.014Z,4.70
2023-05-24T09:30:11.440Z,5.27
2023-05-24T09:34:16.004Z,4.50
2023-05-24T09:38:18.478Z,4.77
2023-05-24T09:42:21.762Z,5.13
2023-05-24T09:46:23.405Z,4.47
2023-05-24T09:50:26.235Z,4.83
2023-05-24T09:54:27.673Z,4.37
2023-05-24T09:58:29.916Z,4.50
2023-05-24T10:02:41.539Z,4.73
2023-05-24T10:06:54.561Z,4.10
2023-05-24T10:10:55.994Z,4.07
2023-05-24T10:14:59.009Z,4.70
2023-05-24T10:19:00.547Z,3.87
2023-05-24T10:23:07.506Z,4.70
2023-05-24T10:27:13.941Z,4.67
2023-05-24T10:31:19.415Z,4.03
2023-05-24T10:35:21.721Z,3.80
2023-05-24T10:39:25.422Z,4.10
2023-05-24T10:43:26.950Z,3.53
2023-05-24T10:47:28.474Z,3.60
2023-05-24T10:51:32.661Z,3.87
2023-05-24T10:55:35.563Z,4.07
2023-05-24T10:59:38.295Z,4.03
2023-05-24T11:03:41.033Z,4.03
2023-05-24T11:07:43.235Z,3.37
2023-05-24T11:11:47.270Z,3.90
2023-05-24T11:15:51.779Z,4.07
2023-05-24T11:19:55.502Z,3.60
2023-05-24T11:23:57.586Z,4.00
2023-05-24T11:28:01.114Z,3.73
2023-05-24T11:32:02.659Z,3.87
2023-05-24T11:36:04.307Z,3.23
2023-05-24T11:40:08.283Z,3.60
2023-05-24T11:44:12.384Z,4.00
2023-05-24T11:48:15.008Z,3.67
2023-05-24T11:52:17.055Z,3.60
2023-05-24T11:56:18.546Z,3.87
2023-05-24T12:00:25.802Z,3.93
2023-05-24T12:04:28.331Z,3.50
2023-05-24T12:08:29.902Z,3.57
2023-05-24T12:12:42.386Z,4.37
2023-05-24T12:16:49.398Z,4.00
2023-05-24T12:20:51.038Z,3.60
2023-05-24T12:24:52.793Z,3.67
2023-05-24T12:28:55.582Z,3.73
2023-05-24T12:32:58.852Z,3.57
2023-05-24T12:37:00.382Z,4.20
2023-05-24T12:41:11.251Z,3.60
2023-05-24T12:45:13.426Z,4.10
2023-05-24T12:49:16.686Z,4.00
2023-05-24T12:53:18.239Z,3.93
2023-05-24T12:57:19.834Z,4.60
2023-05-24T13:01:21.320Z,4.40
2023-05-24T13:05:26.152Z,4.00
2023-05-24T13:09:27.621Z,4.43
2023-05-24T13:13:29.082Z,4.10
2023-05-24T13:17:30.968Z,4.40
2023-05-24T13:21:34.042Z,3.83
2023-05-24T13:25:35.620Z,4.03
2023-05-24T13:29:45.600Z,4.57
2023-05-24T13:33:54.600Z,4.30
2023-05-24T13:37:57.376Z,4.67
2023-05-24T13:41:58.913Z,4.70
2023-05-24T13:46:00.614Z,4.40
2023-05-24T13:50:02.121Z,4.60
2023-05-24T13:54:05.706Z,5.27
2023-05-24T13:58:07.190Z,5.30
2023-05-24T14:02:08.762Z,5.40
2023-05-24T14:06:10.365Z,6.20
2023-05-24T14:10:13.519Z,6.20
2023-05-24T14:18:19.613Z,6.70
2023-05-24T14:22:21.069Z,6.77
2023-05-24T14:26:24.345Z,6.63
2023-05-24T14:30:26.653Z,6.73
2023-05-24T14:34:28.096Z,5.97
2023-05-24T14:38:29.598Z,6.03
2023-05-24T14:42:32.384Z,5.50
2023-05-24T14:46:34.057Z,5.70
2023-05-24T14:50:35.557Z,4.80
2023-05-24T14:54:37.016Z,4.77
2023-05-24T14:58:39.840Z,4.97
2023-05-24T15:02:41.521Z,4.37
2023-05-24T15:06:43.144Z,4.73
2023-05-24T15:10:45.383Z,5.10
2023-05-24T15:14:48.386Z,4.90
2023-05-24T15:18:49.946Z,4.90
2023-05-24T15:22:51.384Z,5.30
2023-05-24T15:26:53.935Z,4.90
2023-05-24T15:30:57.087Z,5.37
2023-05-24T15:34:58.601Z,5.27
2023-05-24T15:39:02.977Z,4.10
2023-05-24T15:43:04.495Z,3.97
2023-05-24T15:47:07.470Z,4.30
2023-05-24T15:55:13.293Z,3.50
2023-05-24T15:59:14.918Z,3.53
2023-05-24T16:03:17.807Z,3.63
2023-05-24T16:07:19.592Z,3.50
2023-05-24T16:11:22.025Z,3.30
2023-05-24T16:15:23.581Z,3.30
2023-05-24T16:19:26.593Z,3.20
2023-05-24T16:23:28.170Z,3.20
2023-05-24T16:27:29.610Z,3.10
2023-05-24T16:31:31.062Z,3.33
2023-05-24T16:35:33.947Z,3.67
2023-05-24T16:39:35.441Z,3.37
2023-05-24T16:43:36.936Z,3.23
2023-05-24T16:47:38.458Z,3.30
2023-05-24T16:51:41.283Z,3.20
2023-05-24T16:55:42.740Z,3.77
2023-05-24T16:59:44.190Z,3.43
2023-05-24T17:03:45.740Z,3.30
2023-05-24T17:07:48.749Z,3.67
2023-05-24T17:11:50.993Z,3.50
2023-05-24T17:15:52.896Z,3.53
2023-05-24T17:19:54.413Z,3.40
2023-05-24T17:23:57.252Z,3.83
2023-05-24T17:27:58.891Z,3.70
2023-05-24T17:32:00.423Z,3.60
2023-05-24T17:36:01.927Z,3.50
2023-05-24T17:40:05.777Z,3.47
2023-05-24T17:44:07.316Z,3.50
2023-05-24T17:48:08.805Z,3.20
2023-05-24T17:52:10.340Z,3.40
2023-05-24T17:56:13.317Z,3.50
2023-05-24T18:00:15.314Z,3.90
2023-05-24T18:04:17.286Z,4.27
2023-05-24T18:08:18.788Z,3.90
2023-05-24T18:12:21.641Z,4.00
2023-05-24T18:16:23.180Z,3.67
2023-05-24T18:20:24.700Z,4.07
2023-05-24T18:24:26.167Z,3.90
2023-05-24T18:28:29.048Z,3.87
2023-05-24T18:32:30.733Z,4.23
2023-05-24T18:36:32.582Z,3.93
2023-05-24T18:40:34.049Z,4.03
2023-05-24T18:44:36.800Z,4.13
2023-05-24T18:48:38.305Z,4.17
2023-05-24T18:52:39.852Z,3.97
2023-05-24T18:56:41.970Z,3.77
2023-05-24T19:00:44.801Z,3.87
2023-05-24T19:04:46.280Z,4.13
2023-05-24T19:08:47.850Z,3.87
2023-05-24T19:12:49.615Z,4.17
2023-05-24T19:16:52.439Z,4.60
2023-05-24T19:20:53.883Z,4.27
2023-05-24T19:24:55.302Z,4.73
2023-05-24T19:28:56.710Z,3.97
2023-05-24T19:32:59.539Z,3.93
2023-05-24T19:37:01.341Z,4.37
2023-05-24T19:41:02.961Z,4.07
2023-05-24T19:45:05.404Z,3.90
2023-05-24T19:49:08.352Z,3.93
2023-05-24T19:53:09.791Z,4.53
2023-05-24T19:57:11.245Z,3.93
2023-05-24T20:01:12.729Z,4.00
2023-05-24T20:05:15.883Z,3.37
2023-05-24T20:09:17.582Z,3.63
2023-05-24T20:13:19.243Z,3.80
2023-05-24T20:17:20.650Z,3.57
2023-05-24T20:21:23.414Z,4.07
2023-05-24T20:25:24.976Z,3.83
2023-05-24T20:29:26.923Z,9.00
2023-05-24T20:33:28.443Z,4.67
2023-05-24T20:37:31.446Z,4.40
2023-05-24T20:41:32.892Z,4.43
2023-05-24T20:45:34.365Z,4.10
2023-05-24T20:49:36.187Z,4.03
2023-05-24T20:53:39.208Z,4.27
2023-05-24T20:57:40.671Z,4.47
2023-05-24T21:01:42.351Z,4.13
2023-05-24T21:05:44.221Z,3.77
2023-05-24T21:09:47.255Z,3.83
2023-05-24T21:13:48.733Z,4.00
2023-05-24T21:17:50.190Z,4.00
2023-05-24T21:21:51.636Z,4.30
2023-05-24T21:25:54.438Z,4.80
2023-05-24T21:29:55.914Z,4.67
2023-05-24T21:33:57.528Z,4.90
2023-05-24T21:37:59.148Z,5.00
2023-05-24T21:42:01.938Z,5.00
2023-05-24T21:46:03.666Z,4.20
2023-05-24T21:50:06.118Z,4.40
2023-05-24T21:54:07.590Z,4.50
2023-05-24T21:58:10.631Z,4.53
2023-05-24T22:02:12.097Z,4.73
2023-05-24T22:06:13.693Z,4.73
2023-05-24T22:10:15.274Z,4.73
2023-05-24T22:14:18.128Z,4.73
2023-05-24T22:18:19.553Z,4.53
2023-05-24T22:22:20.956Z,4.90
2023-05-24T22:26:22.436Z,4.27
2023-05-24T22:30:25.238Z,4.23
2023-05-24T22:34:27.673Z,5.03
2023-05-24T22:38:29.082Z,4.90
2023-05-24T22:42:30.795Z,4.80
2023-05-24T22:46:33.659Z,5.10
2023-05-24T22:50:35.114Z,4.80
2023-05-24T22:54:36.559Z,5.20
2023-05-24T22:58:37.985Z,4.57
2023-05-24T23:02:40.799Z,5.47
2023-05-24T23:06:42.233Z,5.27
2023-05-24T23:10:43.778Z,4.90
2023-05-24T23:14:45.223Z,5.13
2023-05-24T23:18:47.970Z,4.67
2023-05-24T23:22:49.392Z,5.10
2023-05-24T23:26:50.828Z,5.07
2023-05-24T23:30:52.542Z,5.07
2023-05-24T23:34:55.347Z,5.97
2023-05-24T23:38:56.897Z,5.90
2023-05-24T23:42:58.538Z,5.07
2023-05-24T23:47:01.783Z,5.60
2023-05-24T23:51:05.217Z,5.70
2023-05-24T23:55:07.691Z,5.83
2023-05-24T23:59:09.134Z,5.93
